Time;durP1;ratioP1;P1;durP2;ratioP2;P2;SDS_P1;SDS_P2;PMS_P1;PMS_P2;Temp;Humidity;BMP_temperature;BMP_pressure;BME280_temperature;BME280_humidity;BME280_pressure;Samples;Min_cycle;Max_cycle;Signal;HPM_P1;HPM_P2
2023/01/23 00:01:29;;;;;;;15.17;12.60;;;;;;;0.59;100.00;100525.16;6148016;23;20202;-79
2023/01/23 00:03:56;;;;;;;15.20;11.87;;;;;;;0.57;100.00;100520.00;6197516;23;20237;-80
2023/01/23 00:06:23;;;;;;;15.97;12.83;;;;;;;0.57;100.00;100535.81;6173993;23;20202;-79
2023/01/23 00:08:50;;;;;;;16.33;12.60;;;;;;;0.65;100.00;100533.38;6198053;23;20734;-82
2023/01/23 00:11:20;;;;;;;15.27;12.53;;;;;;;0.60;100.00;100532.94;6149091;23;20194;-80
2023/01/23 00:13:47;;;;;;;15.87;12.90;;;;;;;0.55;100.00;100521.97;6197841;23;20209;-80
2023/01/23 00:16:17;;;;;;;16.73;13.20;;;;;;;0.64;100.00;100528.22;6200632;23;20221;-79
2023/01/23 00:18:44;;;;;;;16.97;13.00;;;;;;;0.65;100.00;100522.81;6200478;23;20225;-79
2023/01/23 00:21:12;;;;;;;16.90;13.23;;;;;;;0.69;100.00;100529.50;6200064;23;20666;-80
2023/01/23 00:23:50;;;;;;;16.67;13.37;;;;;;;0.70;100.00;100540.88;6151034;23;20229;-80
2023/01/23 00:26:20;;;;;;;16.77;13.83;;;;;;;0.66;100.00;100535.03;6200064;23;20210;-79
2023/01/23 00:28:48;;;;;;;20.50;16.00;;;;;;;0.69;100.00;100534.78;6200147;23;20237;-80
2023/01/23 00:31:18;;;;;;;20.77;16.13;;;;;;;0.72;100.00;100539.75;6201432;23;20216;-79
2023/01/23 00:33:47;;;;;;;21.33;15.67;;;;;;;0.71;100.00;100543.38;6176447;23;20206;-78
2023/01/23 00:36:14;;;;;;;25.00;18.53;;;;;;;0.70;100.00;100535.59;6199204;23;20206;-79
2023/01/23 00:38:42;;;;;;;43.07;25.80;;;;;;;0.72;100.00;100539.75;6199526;23;20257;-80
2023/01/23 00:41:08;;;;;;;28.93;19.77;;;;;;;0.72;100.00;100523.94;6200359;23;20206;-80
2023/01/23 00:43:35;;;;;;;24.33;18.03;;;;;;;0.74;100.00;100531.72;6200978;23;20210;-80
2023/01/23 00:46:02;;;;;;;20.67;16.03;;;;;;;0.75;100.00;100534.22;6150667;23;20281;-80
2023/01/23 00:48:30;;;;;;;23.47;16.33;;;;;;;0.73;100.00;100528.25;6173855;23;20212;-79
2023/01/23 00:50:57;;;;;;;21.67;16.00;;;;;;;0.77;100.00;100537.56;6181559;23;20553;-79
2023/01/23 00:53:24;;;;;;;20.57;15.83;;;;;;;0.73;100.00;100524.78;6200759;23;20206;-80
2023/01/23 00:55:52;;;;;;;20.60;15.90;;;;;;;0.75;100.00;100533.38;6201447;23;20213;-80
2023/01/23 00:58:19;;;;;;;21.40;16.03;;;;;;;0.73;100.00;100530.91;6200629;23;20206;-80
2023/01/23 01:00:46;;;;;;;24.53;17.07;;;;;;;0.69;100.00;100529.50;6177873;23;20194;-82
2023/01/23 01:03:13;;;;;;;26.90;18.97;;;;;;;0.71;100.00;100529.34;6201220;23;20229;-82
2023/01/23 01:05:40;;;;;;;25.07;17.67;;;;;;;0.77;100.00;100529.66;6177154;23;20253;-82
2023/01/23 01:08:07;;;;;;;23.80;17.33;;;;;;;0.71;100.00;100530.19;6201462;23;20293;-83
2023/01/23 01:10:34;;;;;;;23.53;17.77;;;;;;;0.71;100.00;100527.53;6227192;23;20210;-82
2023/01/23 01:13:04;;;;;;;24.83;17.80;;;;;;;0.68;100.00;100538.38;6202593;23;20267;-82
2023/01/23 01:15:31;;;;;;;24.53;17.93;;;;;;;0.72;100.00;100541.56;6202147;23;20262;-82
2023/01/23 01:17:58;;;;;;;24.47;18.03;;;;;;;0.72;100.00;100536.28;6200879;23;20225;-82
2023/01/23 01:20:27;;;;;;;23.33;17.47;;;;;;;0.70;100.00;100527.69;6200650;23;20202;-82
2023/01/23 01:22:55;;;;;;;22.80;18.27;;;;;;;0.69;100.00;100531.28;6199476;23;20206;-81
2023/01/23 01:25:22;;;;;;;24.83;17.67;;;;;;;0.72;100.00;100525.75;6202547;23;20210;-82
2023/01/23 01:27:54;;;;;;;24.27;17.60;;;;;;;0.73;100.00;100540.59;6203243;23;20183;-82
2023/01/23 01:30:22;;;;;;;23.00;17.27;;;;;;;0.72;100.00;100541.56;6202037;23;20209;-82
2023/01/23 01:32:49;;;;;;;20.63;16.67;;;;;;;0.74;100.00;100539.66;6226662;23;20206;-81
2023/01/23 01:35:16;;;;;;;21.97;16.93;;;;;;;0.73;100.00;100530.91;6176839;23;20288;-82
2023/01/23 01:37:44;;;;;;;20.83;16.63;;;;;;;0.70;100.00;100523.22;6202134;23;20233;-82
2023/01/23 01:40:18;;;;;;;21.13;15.70;;;;;;;0.83;100.00;100525.66;6202059;23;20216;-83
2023/01/23 01:42:59;;;;;;;20.37;15.47;;;;;;;0.68;100.00;100522.53;6202459;23;20212;-82
2023/01/23 01:46:00;;;;;;;19.43;15.30;;;;;;;0.75;100.00;100515.75;6203571;23;20216;-82
2023/01/23 01:49:01;;;;;;;20.83;15.53;;;;;;;0.73;100.00;100516.88;6196584;23;20236;-82
2023/01/23 01:51:35;;;;;;;19.53;14.57;;;;;;;0.59;100.00;100504.06;6259643;23;20662;-81
2023/01/23 01:54:06;;;;;;;20.00;14.70;;;;;;;0.65;100.00;100508.81;6258886;23;20265;-82
2023/01/23 01:56:41;;;;;;;18.43;14.77;;;;;;;0.60;100.00;100503.94;6234112;23;20225;-82
2023/01/23 01:59:10;;;;;;;20.73;15.70;;;;;;;0.58;100.00;100519.03;6233057;23;20215;-82
2023/01/23 02:01:40;;;;;;;21.40;15.60;;;;;;;0.56;100.00;100509.59;6234736;23;20216;-82
2023/01/23 02:04:10;;;;;;;19.80;15.17;;;;;;;0.58;100.00;100500.59;6209347;23;20205;-82
2023/01/23 02:06:39;;;;;;;19.73;15.10;;;;;;;0.66;100.00;100497.25;6235400;23;20210;-82
2023/01/23 02:09:20;;;;;;;20.03;14.60;;;;;;;0.74;100.00;100492.16;6209867;23;20209;-82
2023/01/23 02:11:49;;;;;;;19.87;14.87;;;;;;;0.80;100.00;100504.78;6187896;23;20197;-82
2023/01/23 02:14:19;;;;;;;21.53;15.90;;;;;;;0.74;100.00;100497.44;6232244;23;20189;-82
2023/01/23 02:16:50;;;;;;;22.67;15.77;;;;;;;0.87;100.00;100501.50;6236147;23;20205;-82
2023/01/23 02:19:37;;;;;;;20.27;15.33;;;;;;;0.75;100.00;100492.00;6211504;23;20236;-82
2023/01/23 02:22:14;;;;;;;19.00;14.47;;;;;;;0.74;100.00;100497.44;6236490;23;20229;-82
2023/01/23 02:24:51;;;;;;;21.43;15.53;;;;;;;0.68;100.00;100508.53;6237275;23;20204;-82
2023/01/23 02:27:21;;;;;;;21.50;14.80;;;;;;;0.74;100.00;100515.91;6189141;23;20216;-82
2023/01/23 02:29:51;;;;;;;19.70;14.80;;;;;;;0.73;100.00;100517.72;6237066;23;20728;-82
2023/01/23 02:32:24;;;;;;;23.17;15.27;;;;;;;0.79;100.00;100517.13;6212972;23;20236;-82
2023/01/23 02:34:54;;;;;;;19.73;12.93;;;;;;;0.74;100.00;100503.56;6212331;23;20220;-81
2023/01/23 02:37:26;;;;;;;20.53;14.93;;;;;;;0.84;100.00;100509.66;6237585;23;20209;-82
2023/01/23 02:39:57;;;;;;;22.80;15.27;;;;;;;0.76;100.00;100516.59;6261277;23;20229;-80
2023/01/23 02:42:25;;;;;;;21.33;15.07;;;;;;;0.69;100.00;100520.75;6212261;23;20224;-80
2023/01/23 02:44:55;;;;;;;21.37;14.87;;;;;;;0.76;100.00;100521.88;6212120;23;20217;-80
2023/01/23 02:47:24;;;;;;;20.83;15.27;;;;;;;0.67;100.00;100527.94;6262475;23;20197;-79
2023/01/23 02:49:56;;;;;;;22.63;16.13;;;;;;;0.80;100.00;100513.53;6189267;23;20220;-80
2023/01/23 02:52:23;;;;;;;23.23;16.07;;;;;;;0.85;100.00;100527.16;6207638;23;20216;-82
2023/01/23 02:54:51;;;;;;;23.70;16.33;;;;;;;0.82;100.00;100523.97;6182931;23;20237;-80
2023/01/23 02:57:19;;;;;;;23.43;16.83;;;;;;;0.77;100.00;100534.09;6183618;23;20205;-82
2023/01/23 03:02:37;;;;;;;24.27;16.50;;;;;;;0.77;100.00;100553.38;6194715;23;20205;-82
2023/01/23 03:05:05;;;;;;;24.30;15.97;;;;;;;0.85;100.00;100536.88;6190846;23;20217;-82
2023/01/23 03:07:34;;;;;;;25.03;17.20;;;;;;;0.75;100.00;100541.28;6208908;23;20255;-82
2023/01/23 03:10:04;;;;;;;24.77;16.43;;;;;;;0.79;100.00;100554.06;6206751;23;20237;-82
2023/01/23 03:12:32;;;;;;;27.00;17.37;;;;;;;0.63;100.00;100543.22;6182155;23;20202;-81
2023/01/23 03:15:09;;;;;;;25.13;16.40;;;;;;;0.66;100.00;100539.47;6206918;23;20220;-79
2023/01/23 03:17:39;;;;;;;26.50;17.63;;;;;;;0.70;100.00;100520.59;6206351;23;20206;-82
2023/01/23 03:20:07;;;;;;;27.63;17.90;;;;;;;0.63;100.00;100513.38;6178819;23;20210;-79
2023/01/23 03:22:37;;;;;;;24.93;17.37;;;;;;;0.56;100.00;100502.50;6236791;23;20220;-78
2023/01/23 03:25:07;;;;;;;26.97;18.30;;;;;;;0.57;100.00;100498.91;6174166;23;20207;-78
2023/01/23 03:27:36;;;;;;;27.00;17.13;;;;;;;0.52;100.00;100492.38;6219910;23;20236;-79
2023/01/23 03:30:14;;;;;;;28.40;18.37;;;;;;;0.55;100.00;100498.22;6194248;23;20205;-80
2023/01/23 03:32:43;;;;;;;30.90;19.47;;;;;;;0.52;100.00;100527.47;6185622;23;20214;-79
2023/01/23 03:35:19;;;;;;;29.50;18.00;;;;;;;0.54;100.00;100520.28;6184032;23;20210;-79
2023/01/23 03:37:51;;;;;;;32.27;18.27;;;;;;;0.69;100.00;100521.59;6207000;23;20278;-80
2023/01/23 03:43:11;;;;;;;36.53;20.03;;;;;;;0.60;100.00;100517.13;6183025;23;20206;-80
2023/01/23 03:45:44;;;;;;;33.33;19.83;;;;;;;0.62;100.00;100498.50;6175257;23;20182;-79
2023/01/23 03:48:13;;;;;;;34.97;20.07;;;;;;;0.52;100.00;100516.09;6187221;22;20257;-80
2023/01/23 03:50:42;;;;;;;33.70;20.30;;;;;;;0.50;100.00;100499.59;6192712;23;20603;-79
2023/01/23 03:53:13;;;;;;;32.07;20.10;;;;;;;0.57;100.00;100520.00;6265445;23;20204;-80
2023/01/23 03:55:44;;;;;;;35.57;21.03;;;;;;;0.53;100.00;100517.78;6220012;23;20256;-79
2023/01/23 03:58:12;;;;;;;36.47;20.67;;;;;;;0.58;100.00;100515.56;6220442;23;20196;-80
2023/01/23 04:00:42;;;;;;;32.83;19.63;;;;;;;0.51;100.00;100504.75;6219506;23;20234;-80
2023/01/23 04:03:10;;;;;;;34.00;20.47;;;;;;;0.47;100.00;100513.06;6219056;23;20636;-79
2023/01/23 04:05:38;;;;;;;35.70;19.80;;;;;;;0.34;100.00;100513.25;6238154;23;20229;-79
2023/01/23 04:08:05;;;;;;;33.97;19.47;;;;;;;0.50;100.00;100515.41;6190947;23;20231;-80
2023/01/23 04:10:35;;;;;;;36.30;21.37;;;;;;;0.44;100.00;100525.53;6189865;23;20197;-80
2023/01/23 04:13:09;;;;;;;39.03;22.80;;;;;;;0.31;100.00;100522.28;6206530;23;20219;-80
2023/01/23 04:15:37;;;;;;;37.77;21.13;;;;;;;0.45;100.00;100526.34;6232917;23;20212;-80
2023/01/23 04:18:05;;;;;;;37.27;22.20;;;;;;;0.35;100.00;100507.88;6217482;23;20216;-79
2023/01/23 04:20:33;;;;;;;37.70;21.47;;;;;;;0.28;100.00;100498.81;6163930;23;20207;-82
2023/01/23 04:23:01;;;;;;;36.43;20.03;;;;;;;0.54;100.00;100509.72;6181648;23;20201;-82
2023/01/23 04:25:30;;;;;;;36.33;20.83;;;;;;;0.53;100.00;100502.78;6255465;23;20205;-82
2023/01/23 04:27:59;;;;;;;36.27;20.97;;;;;;;0.44;100.00;100499.16;6217886;23;20208;-80
2023/01/23 04:30:28;;;;;;;35.13;20.37;;;;;;;0.67;100.00;100506.84;6187461;23;20197;-80
2023/01/23 04:32:59;;;;;;;31.80;20.33;;;;;;;0.52;100.00;100510.81;6213501;23;20201;-79
2023/01/23 04:35:27;;;;;;;35.97;20.63;;;;;;;0.54;100.00;100493.91;6188285;23;20205;-80
2023/01/23 04:37:54;;;;;;;35.00;22.03;;;;;;;0.48;100.00;100491.81;6163016;23;20213;-80
2023/01/23 04:40:24;;;;;;;33.27;20.43;;;;;;;0.55;100.00;100490.31;6193938;23;20188;-79
2023/01/23 04:42:55;;;;;;;35.67;22.17;;;;;;;0.47;100.00;100498.03;6193980;23;20217;-79
2023/01/23 04:45:42;;;;;;;35.00;21.93;;;;;;;0.50;100.00;100489.03;6193635;23;20196;-80
2023/01/23 04:48:24;;;;;;;39.93;23.43;;;;;;;0.56;100.00;100489.31;6213175;23;20201;-79
2023/01/23 04:50:57;;;;;;;44.40;27.60;;;;;;;0.44;100.00;100493.03;6264261;23;20215;-79
2023/01/23 04:53:30;;;;;;;35.40;21.97;;;;;;;0.67;100.00;100489.22;6240258;23;20213;-79
2023/01/23 04:56:01;;;;;;;34.67;21.03;;;;;;;0.54;100.00;100486.00;6239090;23;20193;-79
2023/01/23 04:58:29;;;;;;;37.87;21.73;;;;;;;0.51;100.00;100474.91;6238098;23;20201;-80
2023/01/23 05:01:04;;;;;;;36.50;22.13;;;;;;;0.53;100.00;100484.31;6236072;23;20220;-80
2023/01/23 05:03:33;;;;;;;32.07;19.77;;;;;;;0.47;100.00;100484.06;6237457;23;20208;-80
2023/01/23 05:06:01;;;;;;;35.20;22.00;;;;;;;0.57;100.00;100487.53;6237009;23;20205;-78
2023/01/23 05:08:28;;;;;;;39.13;24.93;;;;;;;0.44;100.00;100471.94;6189267;23;20205;-80
2023/01/23 05:11:13;;;;;;;37.77;23.70;;;;;;;0.39;100.00;100463.59;6220196;23;20193;-80
2023/01/23 05:13:44;;;;;;;34.23;22.50;;;;;;;0.44;100.00;100485.97;6240800;23;20213;-80
2023/01/23 05:16:18;;;;;;;35.87;21.73;;;;;;;0.42;100.00;100481.81;6216156;23;20220;-80
2023/01/23 05:19:15;;;;;;;34.43;21.70;;;;;;;0.40;100.00;100486.38;6241780;23;20232;-79
2023/01/23 05:21:44;;;;;;;39.23;24.27;;;;;;;0.52;100.00;100502.91;6216532;23;20197;-79
2023/01/23 05:24:17;;;;;;;36.17;21.40;;;;;;;0.50;100.00;100496.97;6236947;23;20205;-79
2023/01/23 05:26:46;;;;;;;37.77;21.90;;;;;;;0.49;100.00;100501.38;6238723;22;20229;-79
2023/01/23 05:29:13;;;;;;;39.07;23.37;;;;;;;0.49;100.00;100504.03;6215456;23;20200;-80
2023/01/23 05:31:51;;;;;;;35.70;22.20;;;;;;;0.56;100.00;100509.59;6218658;23;20213;-79
2023/01/23 05:34:45;;;;;;;36.47;23.30;;;;;;;0.59;100.00;100528.63;6233496;23;20256;-80
2023/01/23 05:37:24;;;;;;;38.83;23.30;;;;;;;0.47;100.00;100519.13;6239760;23;20195;-79
2023/01/23 05:40:07;;;;;;;36.13;22.93;;;;;;;0.38;100.00;100530.47;6228303;23;20252;-80
2023/01/23 05:43:03;;;;;;;33.53;19.63;;;;;;;0.49;100.00;100533.03;6229070;23;20184;-79
2023/01/23 05:45:49;;;;;;;38.23;22.10;;;;;;;0.41;100.00;100541.63;6190910;23;20215;-80
2023/01/23 05:48:30;;;;;;;35.20;22.27;;;;;;;0.33;100.00;100543.22;6225375;23;20201;-80
2023/01/23 05:51:04;;;;;;;40.10;22.17;;;;;;;0.44;100.00;100551.03;6190772;23;20178;-81
2023/01/23 05:53:33;;;;;;;39.23;22.77;;;;;;;0.41;100.00;100560.06;6227947;23;20217;-80
2023/01/23 05:56:07;;;;;;;40.97;23.33;;;;;;;0.36;100.00;100571.97;6233604;23;20260;-81
2023/01/23 05:59:02;;;;;;;40.20;23.30;;;;;;;0.36;100.00;100575.44;6217147;23;20205;-83
2023/01/23 06:01:42;;;;;;;38.77;23.77;;;;;;;0.19;100.00;100565.47;6191897;23;20229;-84
2023/01/23 06:04:29;;;;;;;42.43;24.87;;;;;;;0.25;100.00;100561.50;6236743;23;20724;-82
2023/01/23 06:07:15;;;;;;;41.27;22.97;;;;;;;0.42;100.00;100560.91;6241671;23;20205;-83
2023/01/23 06:09:50;;;;;;;38.17;22.57;;;;;;;0.33;100.00;100570.41;6191866;23;20205;-80
2023/01/23 06:12:20;;;;;;;39.67;23.03;;;;;;;0.27;100.00;100570.13;6261826;23;20220;-79
2023/01/23 06:14:54;;;;;;;39.73;23.03;;;;;;;0.32;100.00;100587.22;6237830;23;20209;-81
2023/01/23 06:17:23;;;;;;;38.37;22.07;;;;;;;0.28;100.00;100588.41;6218914;23;20206;-80
2023/01/23 06:19:52;;;;;;;40.40;22.93;;;;;;;0.34;100.00;100594.97;6230991;23;20209;-80
2023/01/23 06:22:21;;;;;;;38.40;22.30;;;;;;;0.24;100.00;100578.28;6190611;23;20189;-80
2023/01/23 06:25:21;;;;;;;37.00;20.10;;;;;;;0.40;100.00;100586.56;6206897;23;20205;-82
2023/01/23 06:27:52;;;;;;;43.33;22.47;;;;;;;0.37;100.00;100595.53;6214407;23;20180;-83
2023/01/23 06:30:27;;;;;;;37.83;21.37;;;;;;;0.39;100.00;100596.25;6182600;23;20201;-81
2023/01/23 06:32:55;;;;;;;41.27;23.13;;;;;;;0.34;100.00;100592.34;6231474;23;20212;-79
2023/01/23 06:35:32;;;;;;;41.87;21.70;;;;;;;0.33;100.00;100593.31;6224832;23;20231;-82
2023/01/23 06:38:01;;;;;;;38.80;22.43;;;;;;;0.41;100.00;100601.41;6186209;23;20210;-81
2023/01/23 06:40:29;;;;;;;38.87;21.87;;;;;;;0.41;100.00;100610.16;6178592;23;20213;-83
2023/01/23 06:43:09;;;;;;;38.23;20.77;;;;;;;0.25;100.00;100620.31;6183500;23;20216;-82
2023/01/23 06:45:37;;;;;;;38.20;19.77;;;;;;;0.37;100.00;100623.72;6205458;23;20280;-82
2023/01/23 06:48:04;;;;;;;34.93;21.10;;;;;;;0.31;100.00;100632.16;6207605;23;20214;-82
2023/01/23 06:50:32;;;;;;;35.23;20.30;;;;;;;0.35;100.00;100623.84;6186817;23;20252;-79
2023/01/23 06:53:00;;;;;;;33.20;19.47;;;;;;;0.34;100.00;100629.25;6186389;23;20674;-78
2023/01/23 06:55:28;;;;;;;35.90;20.30;;;;;;;0.36;100.00;100622.06;6199291;23;20209;-79
2023/01/23 06:57:56;;;;;;;31.97;18.37;;;;;;;0.41;100.00;100627.78;6230452;23;20243;-80
2023/01/23 07:00:25;;;;;;;30.83;18.87;;;;;;;0.34;100.00;100637.16;6236391;23;20204;-80
2023/01/23 07:02:57;;;;;;;33.47;19.90;;;;;;;0.33;100.00;100643.38;6187606;23;20231;-79
2023/01/23 07:05:27;;;;;;;33.63;19.67;;;;;;;0.39;100.00;100646.34;6215651;23;20176;-80
2023/01/23 07:07:59;;;;;;;36.33;20.30;;;;;;;0.48;100.00;100628.06;6214600;23;20213;-80
2023/01/23 07:10:32;;;;;;;39.43;21.77;;;;;;;0.49;100.00;100625.31;6192966;23;20209;-79
2023/01/23 07:13:02;;;;;;;33.47;20.20;;;;;;;0.31;100.00;100629.53;6240041;23;20210;-80
2023/01/23 07:15:30;;;;;;;30.27;19.03;;;;;;;0.39;100.00;100624.44;6240027;23;20209;-80
2023/01/23 07:17:59;;;;;;;33.00;18.67;;;;;;;0.34;100.00;100627.44;6241738;23;20221;-81
2023/01/23 10:33:29;;;;;;;23.40;13.40;;;;;;;1.11;100.00;100641.00;6193841;23;20217;-80
2023/01/23 10:36:01;;;;;;;20.63;13.33;;;;;;;1.37;100.00;100646.59;6195923;23;20206;-81
2023/01/23 10:38:46;;;;;;;23.10;13.47;;;;;;;1.36;100.00;100634.34;6193596;23;20206;-80
2023/01/23 10:41:18;;;;;;;17.80;12.20;;;;;;;1.28;100.00;100629.78;6204030;23;20206;-81
2023/01/23 10:44:11;;;;;;;30.87;13.60;;;;;;;1.39;100.00;100622.72;6165238;23;20198;-80
2023/01/23 10:49:42;;;;;;;20.70;12.60;;;;;;;1.52;100.00;100612.72;6226815;22;20225;-81
2023/01/23 10:52:29;;;;;;;17.80;11.07;;;;;;;1.62;100.00;100605.63;6149623;23;20217;-81
2023/01/23 10:54:56;;;;;;;18.73;12.10;;;;;;;1.71;100.00;100607.44;6157071;23;21292;-81
2023/01/23 10:57:28;;;;;;;18.93;11.97;;;;;;;1.70;100.00;100624.25;6194280;23;20265;-82
2023/01/23 11:00:25;;;;;;;18.80;11.50;;;;;;;1.95;100.00;100623.72;6195037;23;20539;-80
2023/01/23 11:02:52;;;;;;;20.97;12.30;;;;;;;1.90;100.00;100611.88;6193948;23;20217;-81
2023/01/23 11:05:38;;;;;;;18.40;12.33;;;;;;;1.97;100.00;100621.75;6168573;23;20232;-81
2023/01/23 11:08:35;;;;;;;17.47;12.13;;;;;;;1.91;100.00;100611.75;6165471;23;20694;-81
2023/01/23 11:11:14;;;;;;;17.53;12.13;;;;;;;1.86;100.00;100621.91;6170277;23;20214;-81
2023/01/23 11:13:42;;;;;;;18.03;12.47;;;;;;;1.67;100.00;100609.53;6139585;23;20274;-81
2023/01/23 11:16:14;;;;;;;18.23;11.73;;;;;;;1.82;100.00;100615.19;6184528;23;20254;-80
2023/01/23 11:19:02;;;;;;;17.23;11.57;;;;;;;1.77;100.00;100606.88;6168019;23;20214;-80
2023/01/23 11:21:34;;;;;;;16.63;11.80;;;;;;;1.75;100.00;100604.38;6169372;23;20234;-81
2023/01/23 11:24:20;;;;;;;18.83;12.63;;;;;;;1.75;100.00;100598.25;6146075;23;20215;-81
2023/01/23 11:27:12;;;;;;;16.90;11.63;;;;;;;1.90;100.00;100591.59;6178084;23;20209;-79
2023/01/23 11:30:00;;;;;;;17.93;12.53;;;;;;;2.02;100.00;100579.03;6200607;23;20206;-79
2023/01/23 11:32:28;;;;;;;19.27;12.90;;;;;;;1.90;100.00;100569.59;6200243;23;20214;-81
2023/01/23 15:25:28;;;;;;;17.80;12.73;;;;;;;2.33;100.00;100590.25;6231589;22;20266;-78
2023/01/23 15:27:55;;;;;;;18.03;12.70;;;;;;;2.35;100.00;100580.34;6223014;23;20308;-78
2023/01/23 15:30:36;;;;;;;16.67;12.00;;;;;;;2.36;100.00;100579.38;6249267;23;20205;-78
2023/01/23 15:33:06;;;;;;;15.67;12.83;;;;;;;2.28;100.00;100585.38;6224382;23;20588;-78
2023/01/23 15:35:37;;;;;;;17.63;12.77;;;;;;;2.31;100.00;100577.16;6181280;23;20232;-79
2023/01/23 15:38:25;;;;;;;16.80;12.67;;;;;;;2.24;100.00;100576.06;6211151;23;20173;-80
2023/01/23 15:40:53;;;;;;;17.17;13.00;;;;;;;2.36;100.00;100582.84;6191463;23;20268;-77
2023/01/23 15:43:24;;;;;;;18.40;12.70;;;;;;;2.38;100.00;100572.94;6222233;23;20196;-79
2023/01/23 15:45:59;;;;;;;15.97;12.33;;;;;;;2.27;100.00;100578.44;6238712;23;20213;-80
2023/01/23 15:48:26;;;;;;;17.53;13.00;;;;;;;2.14;100.00;100573.47;6192033;23;20264;-80
2023/01/23 15:50:54;;;;;;;17.47;12.87;;;;;;;2.02;100.00;100581.66;6232295;23;20194;-79
2023/01/23 15:53:21;;;;;;;18.70;12.80;;;;;;;2.00;100.00;100589.75;6227892;23;20209;-80
2023/01/23 15:56:35;;;;;;;16.67;12.67;;;;;;;2.14;100.00;100593.78;6169019;23;20552;-80
2023/01/23 15:59:05;;;;;;;15.67;12.27;;;;;;;2.09;100.00;100580.97;6179004;23;20190;-80
2023/01/23 16:04:45;;;;;;;15.30;11.93;;;;;;;2.27;100.00;100594.28;6200339;23;20216;-81
2023/01/23 16:07:37;;;;;;;17.90;13.07;;;;;;;2.05;100.00;100599.91;6204317;23;20297;-81
2023/01/23 16:10:15;;;;;;;16.30;11.70;;;;;;;2.10;100.00;100602.97;6202965;23;20174;-80
2023/01/23 16:12:47;;;;;;;15.30;12.23;;;;;;;2.02;100.00;100601.00;6204043;23;20210;-80
2023/01/23 16:15:24;;;;;;;16.03;12.10;;;;;;;2.20;100.00;100603.75;6202650;23;20226;-80
2023/01/23 16:17:52;;;;;;;19.03;13.27;;;;;;;2.13;100.00;100607.97;6168674;23;20196;-79
2023/01/23 16:20:25;;;;;;;16.03;12.40;;;;;;;2.20;100.00;100606.41;6200499;23;20218;-80
2023/01/23 16:22:55;;;;;;;15.17;11.60;;;;;;;2.33;100.00;100608.75;6195405;23;20220;-79
2023/01/23 16:25:38;;;;;;;15.50;11.93;;;;;;;2.26;100.00;100619.06;6187076;23;20202;-79
2023/01/23 16:34:31;;;;;;;16.27;11.77;;;;;;;2.16;100.00;100610.31;6154684;23;20202;-81
2023/01/23 16:37:01;;;;;;;17.40;13.33;;;;;;;2.15;100.00;100621.84;6150501;23;20194;-80
2023/01/23 16:39:32;;;;;;;18.70;13.43;;;;;;;2.28;100.00;100625.06;6147438;23;20206;-80
2023/01/23 16:44:56;;;;;;;17.90;13.43;;;;;;;2.13;100.00;100637.88;6160896;23;20219;-80
2023/01/23 16:47:23;;;;;;;17.10;12.80;;;;;;;2.08;100.00;100634.81;6088971;23;20227;-80
2023/01/23 16:49:53;;;;;;;16.83;12.03;;;;;;;2.28;100.00;100638.28;6123835;23;20203;-81
2023/01/23 16:52:23;;;;;;;18.77;12.73;;;;;;;2.30;100.00;100644.25;6115846;23;20259;-80
2023/01/23 16:54:51;;;;;;;18.03;12.77;;;;;;;2.21;100.00;100632.72;6089432;23;20223;-80
2023/01/23 16:57:19;;;;;;;18.30;13.50;;;;;;;2.39;100.00;100639.91;6089336;23;20215;-80
2023/01/23 16:59:47;;;;;;;19.10;12.47;;;;;;;2.36;100.00;100643.69;6089903;23;20217;-80
2023/01/23 17:02:21;;;;;;;16.60;12.50;;;;;;;2.25;100.00;100629.78;6066193;23;20218;-80
2023/01/23 17:04:48;;;;;;;16.20;12.13;;;;;;;2.21;100.00;100640.66;6116442;23;20211;-80
2023/01/23 17:07:16;;;;;;;16.23;11.93;;;;;;;2.26;100.00;100642.84;6091989;23;20254;-80
2023/01/23 17:09:44;;;;;;;15.10;12.00;;;;;;;2.24;100.00;100639.50;6090071;23;20198;-80
2023/01/23 17:12:13;;;;;;;17.53;12.60;;;;;;;2.26;100.00;100655.25;6104434;23;20286;-79
2023/01/23 17:14:41;;;;;;;14.77;11.97;;;;;;;2.24;100.00;100657.22;6075841;23;20216;-80
2023/01/23 17:17:15;;;;;;;18.50;12.93;;;;;;;2.35;100.00;100651.75;6051615;23;20215;-79
2023/01/23 17:19:43;;;;;;;17.17;12.67;;;;;;;2.28;100.00;100662.06;6075359;23;20588;-79
2023/01/23 17:22:24;;;;;;;17.40;12.87;;;;;;;2.34;100.00;100660.66;6073524;23;20220;-79
2023/01/23 17:24:50;;;;;;;18.93;13.20;;;;;;;2.40;100.00;100653.00;6099797;23;20208;-78
2023/01/23 17:27:17;;;;;;;17.03;12.80;;;;;;;2.29;100.00;100660.28;6100165;23;20216;-79
2023/01/23 17:29:44;;;;;;;17.07;12.60;;;;;;;2.36;100.00;100654.25;6051446;23;20538;-79
2023/01/23 17:32:34;;;;;;;20.17;13.17;;;;;;;2.32;100.00;100650.25;6075716;23;20283;-79
2023/01/23 17:35:03;;;;;;;17.20;12.63;;;;;;;2.38;100.00;100664.72;6054096;23;20251;-80
2023/01/23 17:37:30;;;;;;;16.90;13.00;;;;;;;2.36;100.00;100656.06;6076434;23;20234;-80
2023/01/23 17:39:56;;;;;;;18.07;12.53;;;;;;;2.46;100.00;100659.53;6052922;23;20212;-80
2023/01/23 17:42:23;;;;;;;13.77;11.70;;;;;;;2.48;100.00;100668.97;6030084;23;20211;-79
2023/01/23 17:44:50;;;;;;;17.27;12.93;;;;;;;2.42;100.00;100669.56;6076844;23;20211;-80
2023/01/23 17:47:17;;;;;;;15.37;12.03;;;;;;;2.31;100.00;100661.78;6054941;23;20235;-79
2023/01/23 17:49:49;;;;;;;17.33;12.60;;;;;;;2.27;100.00;100680.72;6053842;23;20261;-80
2023/01/23 17:52:16;;;;;;;17.47;13.60;;;;;;;2.27;100.00;100670.97;6077441;23;20208;-80
2023/01/23 17:54:43;;;;;;;17.33;12.87;;;;;;;2.35;100.00;100673.75;6076965;23;20232;-79
2023/01/23 17:57:10;;;;;;;17.23;13.43;;;;;;;2.33;100.00;100673.06;6077902;23;20219;-79
2023/01/23 17:59:36;;;;;;;17.03;12.73;;;;;;;2.42;100.00;100672.22;6053164;23;20208;-80
2023/01/23 18:02:23;;;;;;;18.07;13.43;;;;;;;2.40;100.00;100674.16;6076136;23;20208;-79
2023/01/23 18:04:50;;;;;;;16.23;12.73;;;;;;;2.38;100.00;100668.16;6077102;23;20211;-80
2023/01/23 18:07:17;;;;;;;15.70;12.93;;;;;;;2.32;100.00;100674.03;6077095;23;20247;-80
2023/01/23 18:09:43;;;;;;;17.57;12.33;;;;;;;2.37;100.00;100665.69;6077523;23;20207;-79
2023/01/23 18:12:26;;;;;;;17.23;13.00;;;;;;;2.37;100.00;100663.03;6076102;23;20279;-79
2023/01/23 18:15:03;;;;;;;18.83;13.23;;;;;;;2.32;100.00;100675.84;6053604;23;20690;-79
2023/01/23 18:17:40;;;;;;;18.33;12.90;;;;;;;2.32;100.00;100679.31;6077563;23;20259;-80
2023/01/23 18:20:16;;;;;;;17.13;13.33;;;;;;;2.25;100.00;100680.00;6078998;23;20243;-80
2023/01/23 18:22:44;;;;;;;16.23;12.97;;;;;;;2.33;100.00;100670.44;6077068;23;20218;-79
2023/01/23 18:25:13;;;;;;;17.77;13.17;;;;;;;2.42;100.00;100669.56;6051023;23;20235;-80
2023/01/23 18:27:40;;;;;;;16.43;12.67;;;;;;;2.42;100.00;100668.72;6078745;23;20543;-80
2023/01/23 18:30:25;;;;;;;16.27;12.80;;;;;;;2.31;100.00;100660.94;6097352;23;20617;-79
2023/01/23 18:33:04;;;;;;;16.20;12.57;;;;;;;2.44;100.00;100654.38;6099765;23;20658;-79
2023/01/23 18:36:05;;;;;;;16.93;12.97;;;;;;;2.48;100.00;100657.56;6102260;23;20581;-80
2023/01/23 18:38:35;;;;;;;15.67;12.30;;;;;;;2.33;100.00;100651.06;6077411;23;20208;-79
2023/01/23 18:41:11;;;;;;;18.03;13.07;;;;;;;2.35;100.00;100655.22;6065097;23;20215;-80
2023/01/23 18:43:42;;;;;;;15.77;12.57;;;;;;;2.29;100.00;100661.06;6128694;23;20215;-80
2023/01/23 18:46:19;;;;;;;18.30;13.33;;;;;;;2.35;100.00;100671.09;6077963;23;20291;-79
2023/01/23 18:48:48;;;;;;;18.00;13.10;;;;;;;2.37;100.00;100660.38;6098422;23;20238;-80
2023/01/23 18:51:36;;;;;;;17.53;13.17;;;;;;;2.33;100.00;100659.84;6099777;23;20602;-80
2023/01/23 18:54:40;;;;;;;17.63;13.00;;;;;;;2.38;100.00;100665.50;6121707;23;20227;-79
2023/01/23 18:57:25;;;;;;;16.47;13.20;;;;;;;2.39;100.00;100669.84;6121751;23;20598;-79
2023/01/23 19:00:06;;;;;;;16.70;13.07;;;;;;;2.39;100.00;100669.84;6121494;23;20222;-79